createdAt,value
2022-12-24T00:01:07.005Z,99.90
2022-12-24T00:03:34.583Z,99.90
2022-12-24T00:06:08.864Z,99.90
2022-12-24T00:08:35.754Z,99.90
2022-12-24T00:11:02.499Z,99.90
2022-12-24T00:13:29.437Z,99.90
2022-12-24T00:15:56.261Z,99.90
2022-12-24T00:18:23.148Z,99.90
2022-12-24T00:20:50.542Z,99.90
2022-12-24T00:23:18.168Z,99.90
2022-12-24T00:25:45.749Z,99.90
2022-12-24T00:28:13.425Z,99.90
2022-12-24T00:30:42.654Z,99.90
2022-12-24T00:33:10.275Z,99.90
2022-12-24T00:35:38.755Z,99.90
2022-12-24T00:38:06.011Z,99.90
2022-12-24T00:40:33.196Z,99.90
2022-12-24T00:43:00.249Z,99.90
2022-12-24T00:45:28.086Z,99.90
2022-12-24T00:47:55.069Z,99.90
2022-12-24T00:50:21.946Z,99.90
2022-12-24T00:52:48.971Z,99.90
2022-12-24T00:55:16.127Z,99.90
2022-12-24T00:57:42.965Z,99.90
2022-12-24T01:00:10.932Z,99.90
2022-12-24T01:02:38.118Z,99.90
2022-12-24T01:05:11.571Z,99.90
2022-12-24T01:07:44.660Z,99.90
2022-12-24T01:10:14.193Z,99.90
2022-12-24T01:12:41.251Z,99.90
2022-12-24T01:15:08.888Z,99.90
2022-12-24T01:17:36.727Z,99.90
2022-12-24T01:20:06.645Z,99.90
2022-12-24T01:22:33.881Z,99.90
2022-12-24T01:25:01.013Z,99.90
2022-12-24T01:27:28.219Z,99.90
2022-12-24T01:29:55.083Z,99.90
2022-12-24T01:32:21.878Z,99.90
2022-12-24T01:34:48.689Z,99.90
2022-12-24T01:37:15.492Z,99.90
2022-12-24T01:39:42.480Z,99.90
2022-12-24T01:42:38.905Z,99.90
2022-12-24T01:45:34.039Z,99.90
2022-12-24T01:48:01.686Z,99.90
2022-12-24T01:50:29.771Z,99.90
2022-12-24T01:52:57.820Z,99.90
2022-12-24T01:55:25.925Z,99.90
2022-12-24T01:57:58.191Z,99.90
2022-12-24T02:00:25.478Z,99.90
2022-12-24T02:02:54.602Z,99.90
2022-12-24T02:05:43.196Z,99.90
2022-12-24T02:08:10.335Z,99.90
2022-12-24T02:10:37.558Z,99.90
2022-12-24T02:13:06.238Z,99.90
2022-12-24T02:15:58.607Z,99.90
2022-12-24T02:18:48.032Z,99.90
2022-12-24T02:21:26.708Z,99.90
2022-12-24T02:24:03.503Z,99.90
2022-12-24T02:26:51.312Z,99.90
2022-12-24T02:29:37.449Z,99.90
2022-12-24T02:32:09.672Z,99.90
2022-12-24T02:34:47.929Z,99.90
2022-12-24T02:37:26.275Z,99.90
2022-12-24T02:39:59.314Z,99.90
2022-12-24T02:42:37.079Z,99.90
2022-12-24T02:45:09.845Z,99.90
2022-12-24T02:47:39.180Z,99.90
2022-12-24T02:50:09.962Z,99.90
2022-12-24T02:52:39.114Z,99.90
2022-12-24T02:55:20.180Z,99.90
2022-12-24T02:57:57.733Z,99.90
2022-12-24T03:00:26.267Z,99.90
2022-12-24T03:03:18.166Z,99.90
2022-12-24T03:05:48.395Z,99.90
2022-12-24T03:08:47.739Z,99.90
2022-12-24T03:11:15.431Z,99.90
2022-12-24T03:13:43.942Z,99.90
2022-12-24T03:16:17.537Z,99.90
2022-12-24T03:18:47.515Z,99.90
2022-12-24T03:21:18.808Z,99.90
2022-12-24T03:23:45.897Z,99.90
2022-12-24T03:26:16.085Z,99.90
2022-12-24T03:28:43.777Z,99.90
2022-12-24T03:31:11.950Z,99.90
2022-12-24T03:33:39.262Z,99.90
2022-12-24T03:36:07.623Z,99.90
2022-12-24T03:38:35.572Z,99.90
2022-12-24T03:41:02.825Z,99.90
2022-12-24T03:43:29.938Z,99.90
2022-12-24T03:45:56.865Z,99.90
2022-12-24T03:48:28.986Z,99.90
2022-12-24T03:50:59.224Z,99.90
2022-12-24T03:53:26.167Z,99.90
2022-12-24T03:55:52.930Z,99.90
2022-12-24T03:58:19.788Z,99.90
2022-12-24T04:00:46.562Z,99.90
2022-12-24T04:03:13.489Z,99.90
2022-12-24T04:05:40.287Z,99.90
2022-12-24T04:08:07.144Z,99.90
2022-12-24T04:10:33.954Z,99.90
2022-12-24T04:13:00.763Z,99.90
2022-12-24T04:15:27.650Z,99.90
2022-12-24T04:17:54.472Z,99.90
2022-12-24T04:20:21.476Z,99.90
2022-12-24T04:22:48.286Z,99.90
2022-12-24T04:25:15.444Z,99.90
2022-12-24T04:27:42.753Z,99.90
2022-12-24T04:30:10.843Z,99.90
2022-12-24T04:32:38.244Z,99.90
2022-12-24T04:35:05.825Z,99.90
2022-12-24T04:37:34.728Z,99.90
2022-12-24T04:40:01.668Z,99.90
2022-12-24T04:42:28.386Z,99.90
2022-12-24T04:44:55.473Z,99.90
2022-12-24T04:47:22.510Z,99.90
2022-12-24T04:49:51.045Z,99.90
2022-12-24T04:52:17.885Z,99.90
2022-12-24T04:54:45.333Z,99.90
2022-12-24T04:57:12.187Z,99.90
2022-12-24T04:59:39.173Z,99.90
2022-12-24T05:02:06.123Z,99.90
2022-12-24T05:04:33.059Z,99.90
2022-12-24T05:07:00.287Z,99.90
2022-12-24T05:09:27.154Z,99.90
2022-12-24T05:11:55.119Z,99.90
2022-12-24T05:14:21.891Z,99.90
2022-12-24T05:16:49.235Z,99.90
2022-12-24T05:19:16.226Z,99.90
2022-12-24T05:21:43.176Z,99.90
2022-12-24T05:24:30.283Z,99.90
2022-12-24T05:26:58.720Z,99.90
2022-12-24T05:29:25.618Z,99.90
2022-12-24T05:31:52.448Z,99.90
2022-12-24T05:34:19.527Z,99.90
2022-12-24T05:36:46.362Z,99.90
2022-12-24T05:39:17.845Z,99.90
2022-12-24T05:41:47.203Z,99.90
2022-12-24T05:44:16.081Z,99.90
2022-12-24T05:46:44.208Z,99.90
2022-12-24T05:49:11.323Z,99.90
2022-12-24T05:51:38.337Z,99.90
2022-12-24T05:54:05.227Z,99.90
2022-12-24T05:56:32.489Z,99.90
2022-12-24T05:58:59.451Z,99.90
2022-12-24T06:01:27.053Z,99.90
2022-12-24T06:03:54.182Z,99.90
2022-12-24T06:06:23.965Z,99.90
2022-12-24T06:08:52.438Z,99.90
2022-12-24T06:11:24.077Z,99.90
2022-12-24T06:13:52.172Z,99.90
2022-12-24T06:16:20.622Z,99.90
2022-12-24T06:18:48.132Z,99.90
2022-12-24T06:21:16.100Z,99.90
2022-12-24T06:23:44.899Z,99.90
2022-12-24T06:26:14.640Z,99.90
2022-12-24T06:28:41.743Z,99.90
2022-12-24T06:31:13.156Z,99.90
2022-12-24T06:33:40.183Z,99.90
2022-12-24T06:36:14.947Z,99.90
2022-12-24T06:38:43.632Z,99.90
2022-12-24T06:41:10.408Z,99.90
2022-12-24T06:43:37.310Z,99.90
2022-12-24T06:46:05.201Z,99.90
2022-12-24T06:48:32.012Z,99.90
2022-12-24T06:50:58.847Z,99.90
2022-12-24T06:53:25.717Z,99.90
2022-12-24T06:55:52.470Z,99.90
2022-12-24T06:58:19.214Z,99.90
2022-12-24T07:00:47.837Z,99.90
2022-12-24T07:03:14.685Z,99.90
2022-12-24T07:05:42.427Z,99.90
2022-12-24T07:08:09.706Z,99.90
2022-12-24T07:10:36.449Z,99.90
2022-12-24T07:13:03.413Z,99.90
2022-12-24T07:15:30.221Z,99.90
2022-12-24T07:17:56.914Z,99.90
2022-12-24T07:20:23.683Z,99.90
2022-12-24T07:22:50.451Z,99.90
2022-12-24T07:25:17.522Z,99.90
2022-12-24T07:27:44.280Z,99.90
2022-12-24T07:30:11.632Z,99.90
2022-12-24T07:32:38.575Z,99.90
2022-12-24T07:35:05.899Z,99.90
2022-12-24T07:37:32.675Z,99.90
2022-12-24T07:39:59.564Z,99.90
2022-12-24T07:42:26.565Z,99.90
2022-12-24T07:44:53.411Z,99.90
2022-12-24T07:47:20.087Z,99.90
2022-12-24T07:49:46.795Z,99.90
2022-12-24T07:52:13.521Z,99.90
2022-12-24T07:54:40.533Z,99.90
2022-12-24T07:57:07.330Z,99.90
2022-12-24T07:59:34.364Z,99.90
2022-12-24T08:02:01.442Z,99.90
2022-12-24T08:04:31.188Z,99.90
2022-12-24T08:06:58.073Z,99.90
2022-12-24T08:09:24.832Z,99.90
2022-12-24T08:11:52.471Z,99.90
2022-12-24T08:14:19.937Z,99.90
2022-12-24T08:16:46.884Z,99.90
2022-12-24T08:19:13.759Z,99.90
2022-12-24T08:21:40.655Z,99.90
2022-12-24T08:24:07.467Z,99.90
2022-12-24T08:26:34.396Z,99.90
2022-12-24T08:29:01.823Z,99.90
2022-12-24T08:31:28.652Z,99.90
2022-12-24T08:33:55.612Z,99.90
2022-12-24T08:36:23.552Z,99.90
2022-12-24T08:38:50.251Z,99.90
2022-12-24T08:41:17.054Z,99.90
2022-12-24T08:43:43.912Z,99.90
2022-12-24T08:46:13.901Z,99.90
2022-12-24T08:48:40.902Z,99.90
2022-12-24T08:51:11.953Z,99.90
2022-12-24T08:53:39.395Z,99.90
2022-12-24T08:56:08.617Z,99.90
2022-12-24T08:58:35.418Z,99.90
2022-12-24T09:01:10.272Z,99.90
2022-12-24T09:03:37.249Z,99.90
2022-12-24T09:06:05.299Z,99.90
2022-12-24T09:08:33.524Z,99.90
2022-12-24T09:11:14.903Z,99.90
2022-12-24T09:13:43.186Z,99.90
2022-12-24T09:16:10.312Z,99.90
2022-12-24T09:18:37.423Z,99.90
2022-12-24T09:21:11.439Z,99.90
2022-12-24T09:23:42.329Z,99.90
2022-12-24T09:26:12.077Z,99.90
2022-12-24T09:28:38.784Z,99.90
2022-12-24T09:31:06.367Z,99.90
2022-12-24T09:33:36.777Z,99.90
2022-12-24T09:36:04.367Z,99.90
2022-12-24T09:38:31.559Z,99.90
2022-12-24T09:41:03.863Z,99.90
2022-12-24T09:43:36.398Z,99.90
2022-12-24T09:46:12.306Z,99.90
2022-12-24T09:48:44.091Z,99.90
2022-12-24T09:51:14.985Z,99.90
2022-12-24T09:54:19.025Z,99.90
2022-12-24T09:56:47.757Z,99.90
2022-12-24T09:59:45.757Z,99.90
2022-12-24T10:02:16.841Z,99.90
2022-12-24T10:04:44.773Z,99.90
2022-12-24T10:07:54.725Z,99.90
2022-12-24T10:10:36.749Z,99.90
2022-12-24T10:13:18.230Z,99.90
2022-12-24T10:16:16.969Z,99.90
2022-12-24T10:19:04.741Z,99.90
2022-12-24T10:21:36.251Z,99.90
2022-12-24T10:24:27.348Z,99.90
2022-12-24T10:27:02.784Z,99.90
2022-12-24T10:29:34.308Z,99.90
2022-12-24T10:32:09.973Z,99.90
2022-12-24T10:34:43.599Z,99.90
2022-12-24T10:37:22.058Z,99.90
2022-12-24T10:39:48.991Z,99.90
2022-12-24T10:42:17.592Z,99.90
2022-12-24T10:44:49.900Z,99.90
2022-12-24T10:47:18.034Z,99.90
2022-12-24T10:49:48.930Z,99.90
2022-12-24T10:52:21.575Z,99.90
2022-12-24T10:55:12.093Z,99.90
2022-12-24T10:57:40.416Z,99.90
2022-12-24T11:00:20.408Z,99.90
2022-12-24T11:02:49.076Z,99.90
2022-12-24T11:05:31.283Z,99.90
2022-12-24T11:08:06.625Z,99.90
2022-12-24T11:10:36.765Z,99.90
2022-12-24T11:13:36.240Z,99.90
2022-12-24T11:16:00.392Z,99.90
2022-12-24T11:18:27.254Z,99.90
2022-12-24T11:20:54.283Z,99.90
2022-12-24T11:23:22.079Z,99.90
2022-12-24T11:25:51.348Z,99.90
2022-12-24T11:28:27.386Z,99.90
2022-12-24T11:30:59.084Z,99.90
2022-12-24T11:33:26.015Z,99.90
2022-12-24T11:35:57.374Z,99.90
2022-12-24T11:38:26.815Z,99.90
2022-12-24T11:41:03.429Z,99.90
2022-12-24T11:43:46.773Z,99.90
2022-12-24T11:46:34.623Z,99.90
2022-12-24T11:49:10.004Z,99.90
2022-12-24T11:51:36.685Z,99.90
2022-12-24T11:54:31.297Z,99.90
2022-12-24T11:57:01.058Z,99.90
2022-12-24T11:59:39.019Z,99.90
2022-12-24T12:02:19.028Z,99.90
2022-12-24T12:04:50.646Z,99.90
2022-12-24T12:07:20.366Z,99.90
2022-12-24T12:10:03.890Z,99.90
2022-12-24T12:12:36.408Z,99.90
2022-12-24T12:15:18.016Z,99.90
2022-12-24T12:17:51.809Z,99.90
2022-12-24T12:20:24.005Z,99.90
2022-12-24T12:23:04.953Z,99.90
2022-12-24T12:25:41.312Z,99.90
2022-12-24T12:28:25.539Z,99.90
2022-12-24T12:31:21.233Z,99.90
2022-12-24T12:34:02.617Z,99.90
2022-12-24T12:36:45.438Z,99.90
2022-12-24T12:39:12.323Z,99.90
2022-12-24T12:42:12.481Z,99.90
2022-12-24T12:45:00.804Z,99.90
2022-12-24T12:47:34.680Z,99.90
2022-12-24T12:50:25.949Z,99.90
2022-12-24T12:53:01.396Z,99.90
2022-12-24T12:55:31.240Z,99.90
2022-12-24T12:58:02.957Z,99.90
2022-12-24T13:00:35.419Z,99.90
2022-12-24T13:03:32.094Z,99.90
2022-12-24T13:06:26.754Z,99.90
2022-12-24T13:09:17.824Z,99.90
2022-12-24T13:12:02.569Z,99.90
2022-12-24T13:14:51.251Z,99.90
2022-12-24T13:17:55.082Z,99.90
2022-12-24T13:20:26.940Z,99.00
2022-12-24T13:23:12.604Z,99.90
2022-12-24T13:25:51.554Z,98.60
2022-12-24T13:28:33.251Z,98.20
2022-12-24T13:31:11.980Z,98.00
2022-12-24T13:33:38.767Z,98.90
2022-12-24T13:36:19.540Z,99.10
2022-12-24T13:38:53.753Z,99.90
2022-12-24T13:41:40.582Z,99.90
2022-12-24T13:44:14.218Z,99.90
2022-12-24T13:47:12.996Z,99.90
2022-12-24T13:49:42.936Z,99.90
2022-12-24T13:52:12.454Z,99.00
2022-12-24T13:55:00.629Z,99.80
2022-12-24T13:57:37.864Z,99.10
2022-12-24T14:00:22.936Z,99.00
2022-12-24T14:03:02.117Z,99.20
2022-12-24T14:05:40.549Z,99.00
2022-12-24T14:08:11.931Z,98.80
2022-12-24T14:10:46.139Z,99.50
2022-12-24T14:13:40.757Z,98.90
2022-12-24T14:16:23.621Z,99.80
2022-12-24T14:19:00.106Z,98.20
2022-12-24T14:21:34.250Z,99.40
2022-12-24T14:24:21.845Z,99.80
2022-12-24T14:26:57.155Z,98.80
2022-12-24T14:29:38.148Z,99.10
2022-12-24T14:32:15.668Z,99.10
2022-12-24T14:34:42.966Z,99.10
2022-12-24T14:37:12.791Z,99.90
2022-12-24T14:39:43.625Z,99.90
2022-12-24T14:42:38.959Z,99.90
2022-12-24T14:45:25.007Z,99.90
2022-12-24T14:48:10.314Z,99.90
2022-12-24T14:50:56.181Z,99.90
2022-12-24T14:53:58.488Z,99.90
2022-12-24T14:56:25.596Z,99.90
2022-12-24T14:58:52.619Z,99.90
2022-12-24T15:01:23.900Z,99.90
2022-12-24T15:04:04.138Z,99.90
2022-12-24T15:06:34.608Z,99.90
2022-12-24T15:09:01.669Z,99.90
2022-12-24T15:11:28.626Z,99.90
2022-12-24T15:14:00.616Z,99.90
2022-12-24T15:16:32.062Z,99.90
2022-12-24T15:19:03.178Z,99.90
2022-12-24T15:21:34.280Z,99.90
2022-12-24T15:24:01.303Z,99.90
2022-12-24T15:26:36.686Z,99.90
2022-12-24T15:29:20.284Z,99.90
2022-12-24T15:31:53.339Z,99.90
2022-12-24T15:34:36.437Z,99.90
2022-12-24T15:37:23.881Z,99.90
2022-12-24T15:40:09.572Z,99.90
2022-12-24T15:42:41.637Z,99.90
2022-12-24T15:45:20.281Z,99.90
2022-12-24T15:48:23.674Z,99.90
2022-12-24T15:50:56.854Z,99.90
2022-12-24T15:53:30.466Z,99.90
2022-12-24T15:56:09.347Z,99.90
2022-12-24T15:58:41.597Z,99.90
2022-12-24T16:01:15.222Z,99.90
2022-12-24T16:03:54.717Z,99.90
2022-12-24T16:06:23.748Z,99.90
2022-12-24T16:08:51.929Z,99.90
2022-12-24T16:11:19.385Z,99.90
2022-12-24T16:14:09.214Z,99.90
2022-12-24T16:16:37.607Z,99.90
2022-12-24T16:19:07.240Z,99.90
2022-12-24T16:21:39.578Z,99.90
2022-12-24T16:24:20.263Z,99.90
2022-12-24T16:26:48.165Z,99.90
2022-12-24T16:29:19.356Z,99.90
2022-12-24T16:31:54.807Z,99.90
2022-12-24T16:34:26.027Z,99.90
2022-12-24T16:36:52.906Z,99.90
2022-12-24T16:39:25.623Z,99.90
2022-12-24T16:42:15.781Z,99.90
2022-12-24T16:44:42.835Z,99.90
2022-12-24T16:47:26.261Z,99.90
2022-12-24T16:49:53.350Z,99.90
2022-12-24T16:52:26.307Z,99.90
2022-12-24T16:54:53.290Z,99.90
2022-12-24T16:57:22.333Z,99.90
2022-12-24T16:59:49.165Z,99.90
2022-12-24T17:02:18.448Z,99.90
2022-12-24T17:04:45.785Z,99.90
2022-12-24T17:07:15.168Z,99.90
2022-12-24T17:09:42.048Z,99.90
2022-12-24T17:12:09.244Z,99.90
2022-12-24T17:14:37.855Z,99.90
2022-12-24T17:17:05.148Z,99.90
2022-12-24T17:19:32.016Z,99.90
2022-12-24T17:21:58.709Z,99.90
2022-12-24T17:24:25.573Z,99.90
2022-12-24T17:26:52.295Z,99.90
2022-12-24T17:29:19.053Z,99.90
2022-12-24T17:31:45.802Z,99.90
2022-12-24T17:34:12.572Z,99.90
2022-12-24T17:36:40.147Z,99.90
2022-12-24T17:39:07.003Z,99.90
2022-12-24T17:41:33.719Z,99.90
2022-12-24T17:44:00.438Z,99.90
2022-12-24T17:46:27.416Z,99.90
2022-12-24T17:48:55.699Z,99.90
2022-12-24T17:51:23.648Z,99.90
2022-12-24T17:53:51.159Z,99.90
2022-12-24T17:56:18.173Z,99.90
2022-12-24T17:58:46.457Z,99.90
2022-12-24T18:01:21.416Z,99.90
2022-12-24T18:03:49.834Z,99.90
2022-12-24T18:06:17.504Z,99.90
2022-12-24T18:08:46.639Z,99.90
2022-12-24T18:11:14.723Z,99.90
2022-12-24T18:13:42.640Z,99.90
2022-12-24T18:16:21.986Z,99.90
2022-12-24T18:18:49.586Z,99.90
2022-12-24T18:21:18.031Z,99.90
2022-12-24T18:23:46.820Z,99.90
2022-12-24T18:26:14.671Z,99.90
2022-12-24T18:28:42.237Z,99.90
2022-12-24T18:31:12.915Z,99.90
2022-12-24T18:33:39.849Z,99.90
2022-12-24T18:36:07.531Z,99.90
2022-12-24T18:38:35.464Z,99.90
2022-12-24T18:41:11.031Z,99.90
2022-12-24T18:43:37.784Z,99.90
2022-12-24T18:46:18.146Z,99.90
2022-12-24T18:48:45.031Z,99.90
2022-12-24T18:51:12.088Z,99.90
2022-12-24T18:53:39.364Z,99.90
2022-12-24T18:56:10.248Z,99.90
2022-12-24T18:58:37.996Z,99.90
2022-12-24T19:01:16.156Z,99.90
2022-12-24T19:03:43.203Z,99.90
2022-12-24T19:06:09.990Z,99.90
2022-12-24T19:11:24.685Z,99.90
2022-12-24T19:13:53.233Z,99.90
2022-12-24T19:16:21.054Z,99.90
2022-12-24T19:18:48.032Z,99.90
2022-12-24T19:21:17.158Z,99.90
2022-12-24T19:23:44.992Z,99.90
2022-12-24T19:26:12.901Z,99.90
2022-12-24T19:28:39.874Z,99.90
2022-12-24T19:31:11.762Z,99.90
2022-12-24T19:33:43.832Z,99.90
2022-12-24T19:36:17.179Z,99.90
2022-12-24T19:38:43.896Z,99.90
2022-12-24T19:41:19.572Z,99.90
2022-12-24T19:43:48.783Z,99.90
2022-12-24T19:46:17.874Z,99.90
2022-12-24T19:48:50.123Z,99.90
2022-12-24T19:51:17.299Z,99.90
2022-12-24T19:53:44.567Z,99.90
2022-12-24T19:56:15.609Z,99.90
2022-12-24T19:58:42.804Z,99.90
2022-12-24T20:01:15.712Z,99.90
2022-12-24T20:03:43.983Z,99.90
2022-12-24T20:06:11.036Z,99.90
2022-12-24T20:08:38.127Z,99.90
2022-12-24T20:11:06.909Z,99.90
2022-12-24T20:13:34.742Z,99.90
2022-12-24T20:16:16.561Z,99.90
2022-12-24T20:18:43.541Z,99.90
2022-12-24T20:21:12.002Z,99.90
2022-12-24T20:23:42.492Z,99.90
2022-12-24T20:26:13.975Z,99.90
2022-12-24T20:28:41.665Z,99.90
2022-12-24T20:31:23.454Z,99.90
2022-12-24T20:33:50.284Z,99.90
2022-12-24T20:36:19.675Z,99.90
2022-12-24T20:38:47.107Z,99.90
2022-12-24T20:41:15.927Z,99.90
2022-12-24T20:43:48.431Z,99.90
2022-12-24T20:46:20.135Z,99.90
2022-12-24T20:48:47.760Z,99.90
2022-12-24T20:51:23.708Z,99.90
2022-12-24T20:53:53.516Z,99.90
2022-12-24T20:56:20.382Z,99.90
2022-12-24T20:58:47.192Z,99.90
2022-12-24T21:01:20.064Z,99.90
2022-12-24T21:03:47.307Z,99.90
2022-12-24T21:06:15.650Z,99.90
2022-12-24T21:08:42.890Z,99.90
2022-12-24T21:11:28.623Z,99.90
2022-12-24T21:13:55.381Z,99.90
2022-12-24T21:16:22.251Z,99.90
2022-12-24T21:18:50.106Z,99.90
2022-12-24T21:21:16.941Z,99.90
2022-12-24T21:23:43.613Z,99.90
2022-12-24T21:26:10.332Z,99.90
2022-12-24T21:28:37.135Z,99.90
2022-12-24T21:31:11.998Z,99.90
2022-12-24T21:33:39.151Z,99.90
2022-12-24T21:36:06.242Z,99.90
2022-12-24T21:38:33.776Z,99.90
2022-12-24T21:41:15.770Z,99.90
2022-12-24T21:43:43.840Z,99.90
2022-12-24T21:46:17.516Z,99.90
2022-12-24T21:49:03.191Z,99.90
2022-12-24T21:51:30.579Z,99.90
2022-12-24T21:54:18.137Z,99.90
2022-12-24T21:57:03.708Z,99.90
2022-12-24T21:59:30.546Z,99.90
2022-12-24T22:01:57.780Z,99.90
2022-12-24T22:04:25.211Z,99.90
2022-12-24T22:07:10.572Z,99.90
2022-12-24T22:09:58.734Z,99.90
2022-12-24T22:12:28.899Z,99.90
2022-12-24T22:14:55.652Z,99.90
2022-12-24T22:17:25.554Z,99.90
2022-12-24T22:19:53.938Z,99.90
2022-12-24T22:22:20.900Z,99.90
2022-12-24T22:24:47.662Z,99.90
2022-12-24T22:27:14.363Z,99.90
2022-12-24T22:29:41.101Z,99.90
2022-12-24T22:32:07.849Z,99.90
2022-12-24T22:34:36.087Z,99.90
2022-12-24T22:37:02.948Z,99.90
2022-12-24T22:39:29.662Z,99.90
2022-12-24T22:41:57.932Z,99.90
2022-12-24T22:44:25.098Z,99.90
2022-12-24T22:46:51.794Z,99.90
2022-12-24T22:49:18.478Z,99.90
2022-12-24T22:51:45.287Z,99.90
2022-12-24T22:54:11.988Z,99.90
2022-12-24T22:56:41.313Z,99.90
2022-12-24T22:59:09.491Z,99.90
2022-12-24T23:01:38.326Z,99.90
2022-12-24T23:04:07.050Z,99.90
2022-12-24T23:06:34.734Z,99.90
2022-12-24T23:09:02.802Z,99.90
2022-12-24T23:11:29.591Z,99.90
2022-12-24T23:14:14.788Z,99.90
2022-12-24T23:16:41.586Z,99.90
2022-12-24T23:19:08.817Z,99.90
2022-12-24T23:21:36.668Z,99.90
2022-12-24T23:24:03.625Z,99.90
2022-12-24T23:26:30.398Z,99.90
2022-12-24T23:28:57.867Z,99.90
2022-12-24T23:31:25.393Z,99.90
2022-12-24T23:33:52.400Z,99.90
2022-12-24T23:36:19.738Z,99.90
2022-12-24T23:38:46.652Z,99.90
2022-12-24T23:41:13.585Z,99.90
2022-12-24T23:43:40.400Z,99.90
2022-12-24T23:46:07.258Z,99.90
2022-12-24T23:48:33.979Z,99.90
2022-12-24T23:51:08.780Z,99.90
2022-12-24T23:53:35.887Z,99.90
2022-12-24T23:56:02.810Z,99.90
2022-12-24T23:58:29.545Z,99.90
